createdAt,value
2018-02-07T00:04:11.526Z,17.98
2018-02-07T00:15:33.200Z,19.23
2018-02-07T00:32:53.006Z,19.10
2018-02-07T00:41:09.977Z,18.83
2018-02-07T00:43:37.850Z,22.45
2018-02-07T00:46:19.507Z,22.50
2018-02-07T00:48:47.700Z,20.02
2018-02-07T00:51:19.201Z,21.08
2018-02-07T01:02:25.276Z,19.27
2018-02-07T01:07:47.600Z,18.67
2018-02-07T01:13:09.033Z,18.20
2018-02-07T01:21:46.900Z,17.80
2018-02-07T01:24:15.101Z,19.90
2018-02-07T01:26:49.977Z,17.52
2018-02-07T01:32:11.602Z,17.95
2018-02-07T01:34:39.511Z,17.75
2018-02-07T01:37:07.412Z,19.37
2018-02-07T01:48:20.494Z,17.70
2018-02-07T01:50:48.374Z,19.60
2018-02-07T01:53:16.243Z,19.73
2018-02-07T01:55:50.105Z,21.08
2018-02-07T02:01:34.865Z,21.42
2018-02-07T02:04:03.781Z,21.50
2018-02-07T02:12:33.499Z,20.10
2018-02-07T02:15:02.456Z,18.80
2018-02-07T02:17:38.645Z,20.37
2018-02-07T02:20:06.503Z,21.50
2018-02-07T02:25:49.581Z,20.95
2018-02-07T02:28:19.534Z,21.15
2018-02-07T02:43:18.871Z,20.85
2018-02-07T02:48:54.640Z,21.05
2018-02-07T02:54:50.456Z,18.35
2018-02-07T03:07:09.507Z,18.37
2018-02-07T03:09:37.607Z,20.62
2018-02-07T03:14:59.834Z,18.73
2018-02-07T03:26:19.764Z,21.85
2018-02-07T03:37:56.668Z,20.25
2018-02-07T03:40:24.559Z,21.73
2018-02-07T03:42:53.418Z,20.85
2018-02-07T03:45:21.259Z,21.27
2018-02-07T03:50:54.409Z,19.50
2018-02-07T03:53:22.301Z,21.20
2018-02-07T03:58:57.645Z,21.87
2018-02-07T04:01:25.560Z,21.33
2018-02-07T04:03:53.448Z,21.15
2018-02-07T04:06:21.463Z,22.92
2018-02-07T04:08:49.328Z,22.08
2018-02-07T04:11:17.183Z,23.00
2018-02-07T04:13:45.026Z,23.85
2018-02-07T04:16:12.891Z,24.30
2018-02-07T04:18:40.711Z,21.55
2018-02-07T04:21:21.742Z,23.52
2018-02-07T04:23:49.933Z,22.23
2018-02-07T04:26:19.441Z,22.08
2018-02-07T04:31:46.564Z,21.67
2018-02-07T04:37:22.174Z,23.85
2018-02-07T04:42:49.927Z,21.67
2018-02-07T04:45:20.051Z,21.17
2018-02-07T04:53:48.117Z,21.80
2018-02-07T04:59:06.696Z,20.62
2018-02-07T05:04:39.031Z,20.98
2018-02-07T05:09:54.927Z,21.40
2018-02-07T05:15:34.329Z,20.77
2018-02-07T05:20:57.099Z,22.60
2018-02-07T05:23:25.294Z,22.40
2018-02-07T05:25:53.212Z,21.30
2018-02-07T05:28:21.078Z,23.08
2018-02-07T05:30:48.944Z,21.08
2018-02-07T05:33:16.797Z,21.87
2018-02-07T05:35:44.630Z,22.42
2018-02-07T05:40:52.780Z,24.75
2018-02-07T05:46:23.485Z,22.10
2018-02-07T05:48:51.505Z,25.25
2018-02-07T05:54:17.126Z,22.65
2018-02-07T05:56:51.512Z,24.80
2018-02-07T06:02:13.329Z,22.05
2018-02-07T06:07:35.904Z,22.40
2018-02-07T06:12:58.485Z,24.27
2018-02-07T06:18:25.055Z,21.40
2018-02-07T06:20:52.948Z,24.55
2018-02-07T06:23:20.825Z,24.08
2018-02-07T06:25:48.764Z,24.87
2018-02-07T06:28:16.613Z,25.80
2018-02-07T06:30:47.764Z,23.35
2018-02-07T06:33:15.604Z,23.25
2018-02-07T06:35:43.451Z,23.52
2018-02-07T06:38:11.296Z,26.60
2018-02-07T06:40:39.140Z,25.55
2018-02-07T06:43:07.052Z,26.37
2018-02-07T06:45:34.934Z,23.77
2018-02-07T06:48:02.908Z,27.85
2018-02-07T06:50:30.824Z,23.08
2018-02-07T06:52:58.923Z,24.70
2018-02-07T06:55:26.804Z,24.73
2018-02-07T06:57:54.681Z,24.15
2018-02-07T07:00:22.633Z,24.85
2018-02-07T07:02:50.508Z,26.58
2018-02-07T07:05:18.373Z,24.58
2018-02-07T07:07:46.237Z,23.48
2018-02-07T07:10:14.084Z,25.20
2018-02-07T07:12:41.964Z,26.05
2018-02-07T07:15:09.788Z,25.65
2018-02-07T07:17:37.637Z,25.08
2018-02-07T07:20:05.449Z,24.27
2018-02-07T07:22:33.334Z,26.40
2018-02-07T07:25:01.204Z,23.65
2018-02-07T07:27:29.052Z,24.25
2018-02-07T07:29:56.972Z,27.08
2018-02-07T07:32:24.830Z,24.23
2018-02-07T07:34:52.674Z,27.05
2018-02-07T07:43:17.708Z,25.10
2018-02-07T07:45:45.649Z,24.33
2018-02-07T07:48:13.511Z,24.50
2018-02-07T07:50:41.360Z,23.17
2018-02-07T07:53:09.194Z,22.83
2018-02-07T07:55:37.036Z,23.20
2018-02-07T07:58:04.945Z,24.00
2018-02-07T08:00:32.771Z,25.62
2018-02-07T08:03:00.612Z,24.37
2018-02-07T08:05:28.468Z,26.85
2018-02-07T08:07:56.322Z,23.77
2018-02-07T08:10:24.165Z,21.52
2018-02-07T08:12:52.014Z,23.10
2018-02-07T08:15:19.877Z,22.62
2018-02-07T08:17:47.833Z,21.55
2018-02-07T08:20:15.712Z,19.98
2018-02-07T08:22:43.588Z,22.35
2018-02-07T08:25:12.429Z,22.65
2018-02-07T08:27:40.276Z,21.55
2018-02-07T08:30:08.121Z,23.48
2018-02-07T08:32:35.968Z,19.55
2018-02-07T08:35:03.808Z,20.02
2018-02-07T08:37:31.678Z,21.02
2018-02-07T08:39:59.504Z,19.98
2018-02-07T08:42:27.444Z,21.02
2018-02-07T08:44:57.355Z,21.08
2018-02-07T08:47:25.191Z,20.25
2018-02-07T08:49:53.032Z,20.77
2018-02-07T08:52:20.880Z,20.40
2018-02-07T08:54:48.725Z,18.77
2018-02-07T08:57:16.602Z,19.55
2018-02-07T08:59:44.460Z,19.95
2018-02-07T09:05:13.429Z,18.65
2018-02-07T09:07:41.244Z,20.30
2018-02-07T09:10:09.060Z,18.85
2018-02-07T09:12:36.942Z,17.95
2018-02-07T09:15:08.481Z,18.60
2018-02-07T09:17:43.839Z,19.10
2018-02-07T09:20:13.591Z,19.37
2018-02-07T09:22:49.234Z,16.62
2018-02-07T09:25:17.073Z,16.58
2018-02-07T09:27:51.693Z,15.90
2018-02-07T09:30:19.554Z,16.67
2018-02-07T09:32:47.400Z,15.70
2018-02-07T09:35:15.227Z,16.10
2018-02-07T09:37:43.060Z,17.23
2018-02-07T09:40:10.898Z,17.57
2018-02-07T09:42:39.747Z,17.70
2018-02-07T09:45:07.576Z,16.00
2018-02-07T09:47:37.419Z,18.40
2018-02-07T09:50:05.235Z,16.50
2018-02-07T09:52:33.068Z,16.20
2018-02-07T09:55:00.933Z,17.23
2018-02-07T09:57:28.753Z,17.30
2018-02-07T09:59:56.612Z,16.87
2018-02-07T10:02:24.464Z,16.20
2018-02-07T10:04:52.349Z,14.87
2018-02-07T10:07:20.231Z,16.60
2018-02-07T10:09:48.098Z,17.33
2018-02-07T10:12:15.937Z,17.63
2018-02-07T10:14:43.784Z,15.50
2018-02-07T10:17:11.684Z,17.20
2018-02-07T10:19:39.547Z,18.03
2018-02-07T10:22:07.507Z,15.80
2018-02-07T10:24:35.352Z,15.80
2018-02-07T10:27:03.175Z,15.33
2018-02-07T10:29:31.024Z,15.33
2018-02-07T10:31:59.664Z,16.33
2018-02-07T10:34:27.505Z,15.77
2018-02-07T10:36:55.352Z,14.97
2018-02-07T10:39:23.208Z,15.40
2018-02-07T10:41:51.042Z,15.57
2018-02-07T10:44:18.868Z,15.77
2018-02-07T10:46:47.657Z,16.17
2018-02-07T10:49:15.512Z,15.53
2018-02-07T10:51:43.355Z,13.90
2018-02-07T10:54:11.176Z,15.83
2018-02-07T10:56:38.988Z,14.47
2018-02-07T10:59:06.815Z,16.17
2018-02-07T11:01:34.677Z,16.80
2018-02-07T11:04:02.495Z,16.83
2018-02-07T11:06:30.319Z,16.07
2018-02-07T11:08:58.550Z,15.60
2018-02-07T11:11:26.429Z,17.63
2018-02-07T11:13:54.253Z,15.77
2018-02-07T11:16:22.088Z,17.13
2018-02-07T11:18:49.959Z,17.07
2018-02-07T11:21:17.795Z,16.20
2018-02-07T11:23:45.616Z,17.30
2018-02-07T11:26:13.455Z,17.33
2018-02-07T11:28:42.281Z,17.70
2018-02-07T11:31:10.104Z,18.87
2018-02-07T11:33:39.221Z,17.53
2018-02-07T11:36:08.348Z,17.50
2018-02-07T11:41:48.316Z,19.40
2018-02-07T11:44:16.166Z,18.63
2018-02-07T11:46:49.381Z,17.57
2018-02-07T11:49:17.362Z,17.70
2018-02-07T11:51:46.159Z,17.03
2018-02-07T11:54:14.000Z,16.80
2018-02-07T11:56:41.828Z,18.57
2018-02-07T11:59:09.668Z,16.70
2018-02-07T12:01:37.500Z,16.43
2018-02-07T12:04:05.343Z,15.50
2018-02-07T12:06:34.192Z,17.03
2018-02-07T12:09:02.044Z,15.40
2018-02-07T12:11:29.895Z,15.87
2018-02-07T12:13:57.867Z,16.73
2018-02-07T12:16:25.764Z,16.40
2018-02-07T12:18:53.666Z,15.63
2018-02-07T12:21:21.529Z,13.50
2018-02-07T12:23:49.364Z,13.83
2018-02-07T12:26:17.198Z,14.10
2018-02-07T12:28:45.045Z,14.67
2018-02-07T12:31:12.885Z,15.00
2018-02-07T12:33:40.725Z,16.33
2018-02-07T12:36:08.553Z,15.87
2018-02-07T12:38:36.389Z,14.93
2018-02-07T12:41:04.247Z,14.10
2018-02-07T12:43:32.100Z,13.40
2018-02-07T12:45:59.938Z,14.40
2018-02-07T12:48:27.821Z,14.93
2018-02-07T12:50:55.657Z,13.67
2018-02-07T12:53:23.500Z,13.00
2018-02-07T12:55:51.369Z,15.60
2018-02-07T12:58:19.483Z,14.77
2018-02-07T13:00:57.949Z,13.53
2018-02-07T13:14:36.013Z,14.90
2018-02-07T13:17:04.327Z,15.47
2018-02-07T13:19:32.158Z,14.80
2018-02-07T13:21:59.967Z,14.30
2018-02-07T13:24:27.804Z,15.03
2018-02-07T13:26:55.640Z,15.03
2018-02-07T13:29:23.489Z,15.37
2018-02-07T13:31:51.357Z,13.03
2018-02-07T13:34:19.304Z,14.73
2018-02-07T13:36:52.133Z,15.40
2018-02-07T13:56:35.984Z,14.55
2018-02-07T13:59:03.847Z,14.77
2018-02-07T14:01:31.687Z,15.30
2018-02-07T14:03:59.516Z,15.30
2018-02-07T14:06:27.359Z,14.73
2018-02-07T14:08:55.188Z,15.30
2018-02-07T14:11:23.049Z,14.80
2018-02-07T14:13:50.908Z,14.25
2018-02-07T14:16:18.775Z,14.80
2018-02-07T14:18:46.606Z,15.48
2018-02-07T14:21:14.472Z,16.65
2018-02-07T14:23:42.382Z,16.50
2018-02-07T14:26:10.267Z,14.75
2018-02-07T14:28:38.104Z,16.30
2018-02-07T14:31:05.945Z,16.55
2018-02-07T14:33:33.787Z,16.33
2018-02-07T14:36:01.652Z,19.25
2018-02-07T14:38:30.313Z,17.08
2018-02-07T14:43:48.326Z,16.48
2018-02-07T14:49:11.069Z,16.00
2018-02-07T14:51:42.568Z,16.33
2018-02-07T14:54:10.385Z,16.73
2018-02-07T14:56:38.356Z,17.17
2018-02-07T14:59:06.181Z,15.35
2018-02-07T15:01:34.048Z,16.95
2018-02-07T15:04:01.890Z,16.77
2018-02-07T15:06:33.836Z,16.83
2018-02-07T15:09:01.660Z,15.77
2018-02-07T15:11:29.484Z,16.48
2018-02-07T15:13:57.306Z,16.17
2018-02-07T15:16:25.132Z,15.85
2018-02-07T15:18:52.949Z,16.45
2018-02-07T15:21:20.863Z,15.73
2018-02-07T15:23:48.691Z,15.25
2018-02-07T15:26:16.527Z,14.63
2018-02-07T15:31:19.210Z,15.70
2018-02-07T15:33:47.033Z,15.07
2018-02-07T15:36:14.863Z,14.35
2018-02-07T15:38:42.716Z,14.30
2018-02-07T15:41:10.540Z,13.95
2018-02-07T15:43:38.373Z,14.87
2018-02-07T15:46:06.183Z,13.90
2018-02-07T15:57:23.778Z,12.98
2018-02-07T16:02:46.634Z,13.25
2018-02-07T16:11:19.473Z,13.30
2018-02-07T16:13:47.324Z,15.70
2018-02-07T16:16:15.192Z,15.27
2018-02-07T16:24:32.777Z,16.73
2018-02-07T16:30:19.834Z,15.07
2018-02-07T16:38:19.464Z,16.05
2018-02-07T16:49:51.193Z,17.10
2018-02-07T17:04:05.112Z,17.58
2018-02-07T17:24:54.251Z,14.95
2018-02-07T17:36:37.799Z,14.40
2018-02-07T17:39:23.996Z,14.15
2018-02-07T17:41:52.351Z,14.30
2018-02-07T17:44:21.283Z,14.45
2018-02-07T17:46:50.823Z,14.32
2018-02-07T17:52:13.802Z,15.10
2018-02-07T18:00:47.620Z,14.18
2018-02-07T18:21:07.297Z,16.77
2018-02-07T18:23:35.685Z,16.75
2018-02-07T18:26:04.996Z,16.58
2018-02-07T18:34:21.709Z,17.33
2018-02-07T18:40:02.292Z,18.80
2018-02-07T18:42:51.634Z,17.25
2018-02-07T18:48:13.836Z,17.52
2018-02-07T18:59:06.889Z,20.15
2018-02-07T19:16:11.657Z,20.05
2018-02-07T19:18:44.819Z,19.98
2018-02-07T19:24:00.565Z,21.77
2018-02-07T19:29:22.795Z,20.67
2018-02-07T19:34:51.725Z,19.08
2018-02-07T20:09:51.977Z,20.58
2018-02-07T20:12:20.308Z,21.23
2018-02-07T20:14:49.711Z,22.27
2018-02-07T20:23:18.382Z,19.90
2018-02-07T20:25:46.318Z,20.77
2018-02-07T20:28:20.944Z,23.27
2018-02-07T20:33:43.547Z,24.60
2018-02-07T20:36:13.977Z,24.67
2018-02-07T20:50:32.604Z,24.73
2018-02-07T20:58:51.322Z,24.33
2018-02-07T21:04:22.582Z,24.27
2018-02-07T21:09:30.380Z,25.02
2018-02-07T21:12:04.115Z,24.35
2018-02-07T21:14:34.159Z,24.70
2018-02-07T21:17:02.344Z,22.95
2018-02-07T21:22:31.264Z,23.40
2018-02-07T21:24:59.503Z,25.27
2018-02-07T21:33:35.901Z,26.27
2018-02-07T21:42:13.919Z,24.30
2018-02-07T21:59:48.889Z,23.52
2018-02-07T22:03:06.281Z,26.85
2018-02-07T22:14:50.717Z,27.17
2018-02-07T22:32:29.771Z,32.20
2018-02-07T22:38:20.154Z,33.25
2018-02-07T22:43:56.424Z,34.15
2018-02-07T22:49:19.730Z,31.50
2018-02-07T22:51:51.049Z,31.85
2018-02-07T23:09:42.511Z,32.65
2018-02-07T23:12:10.511Z,32.38
2018-02-07T23:41:06.248Z,27.95
2018-02-07T23:52:44.029Z,26.20
2018-02-07T23:55:11.998Z,27.77
